Pagrindinis puslapis
METAR-TAF:

METAR-TAF

Oro uostai :

Medanas, Šiaurės Sumatra, Indonezija

platuma: 03-34N, ilguma: 098-41E, Aukštis: 25 m

METAR: trūkstamas

Laikas: 01:48 (18:48 UTC)

Prognozė

Ataskaita buvo paskelbta 1 valandą ir 48 minutes, ne 17:00 UTC
Prognozė galioja nuo 30 metu 18 UTC su 01 metu 18 UTC
Vėjas 5 kt nuo kintamojo kryptimis
Matomumas: 3000 m
Išsisklaidę debesys ne aukštis 1800 ft
rūkana
Laikinai
nuo 30 metu 23 UTC su 01 metu 03 UTC
Mažai debesys ne aukštis 1600 ft, Liūtiniai kamuoliniai debesys.
Išsisklaidę debesys ne aukštis 1700 ft
perkūnija, lietus
Tapsmas
nuo 01 metu 04 UTC su 01 metu 06 UTC
Vėjas 8 kt iš Šiaurės
Matomumas 10 km arba daugiau
Tapsmas
nuo 01 metu 10 UTC su 01 metu 12 UTC
Vėjas 5 kt nuo kintamojo kryptimis
Matomumas: 5000 m
Išsisklaidę debesys ne aukštis 1700 ft
migla

TAF: WIMM 301700Z 3018/0118 VRB05KT 3000 BR SCT018 TEMPO 3023/0103 TSRA FEW016CB SCT017 BECMG 0104/0106 36008KT 9999 BECMG 0110/0112 VRB05KT 5000 HZ SCT017

Orai ataskaitas ir orų prognozės (METAR, TAF).

turimą stotys yra geltonos ir raudonos taškus žemėlapyje.

Perkelti pele per norėdami pamatyti stoties vardą.

Tada spustelėkite, norėdami matyti oro stebėjimo ir prognozės.

Norėdami pakeisti žemėlapį: spustelėkite ant žalios mygtukų su juodo kryžiaus žemyn,; žalią mygtuką su brūkšneliu, jei norite nutolinti; arba žalių rodyklių gretimoms žemėlapius.


METAR-TAF: